sensor_id;sensor_type;location;lat;lon;timestamp;P1;durP1;ratioP1;P2;durP2;ratioP2
25333;SDS011;24559;53.590;9.764;2023-07-31T00:00:42;9.23;;;2.20;;
25333;SDS011;24559;53.590;9.764;2023-07-31T00:03:08;5.00;;;1.92;;
25333;SDS011;24559;53.590;9.764;2023-07-31T00:05:35;11.52;;;2.28;;
25333;SDS011;24559;53.590;9.764;2023-07-31T00:08:01;4.75;;;1.88;;
25333;SDS011;24559;53.590;9.764;2023-07-31T00:10:27;6.28;;;2.13;;
25333;SDS011;24559;53.590;9.764;2023-07-31T00:12:53;6.47;;;2.20;;
25333;SDS011;24559;53.590;9.764;2023-07-31T00:15:20;4.65;;;2.10;;
25333;SDS011;24559;53.590;9.764;2023-07-31T00:17:46;3.13;;;1.70;;
25333;SDS011;24559;53.590;9.764;2023-07-31T00:20:12;8.93;;;1.83;;
25333;SDS011;24559;53.590;9.764;2023-07-31T00:22:39;9.00;;;2.28;;
25333;SDS011;24559;53.590;9.764;2023-07-31T00:25:05;9.68;;;1.95;;
25333;SDS011;24559;53.590;9.764;2023-07-31T00:27:31;10.65;;;2.03;;
25333;SDS011;24559;53.590;9.764;2023-07-31T00:29:58;8.48;;;1.90;;
25333;SDS011;24559;53.590;9.764;2023-07-31T00:32:24;9.55;;;2.00;;
25333;SDS011;24559;53.590;9.764;2023-07-31T00:34:51;7.20;;;1.90;;
25333;SDS011;24559;53.590;9.764;2023-07-31T00:37:17;11.98;;;2.35;;
25333;SDS011;24559;53.590;9.764;2023-07-31T00:39:44;10.00;;;2.28;;
25333;SDS011;24559;53.590;9.764;2023-07-31T00:42:10;6.63;;;2.13;;
25333;SDS011;24559;53.590;9.764;2023-07-31T00:44:36;10.02;;;2.05;;
25333;SDS011;24559;53.590;9.764;2023-07-31T00:47:02;10.80;;;2.67;;
25333;SDS011;24559;53.590;9.764;2023-07-31T00:49:29;5.38;;;2.00;;
25333;SDS011;24559;53.590;9.764;2023-07-31T00:51:55;7.18;;;1.67;;
25333;SDS011;24559;53.590;9.764;2023-07-31T00:54:24;10.98;;;2.20;;
25333;SDS011;24559;53.590;9.764;2023-07-31T00:56:50;10.50;;;2.15;;
25333;SDS011;24559;53.590;9.764;2023-07-31T00:59:20;5.78;;;2.22;;
25333;SDS011;24559;53.590;9.764;2023-07-31T01:01:47;6.38;;;1.90;;
25333;SDS011;24559;53.590;9.764;2023-07-31T01:04:13;6.57;;;2.10;;
25333;SDS011;24559;53.590;9.764;2023-07-31T01:06:52;5.80;;;2.60;;
25333;SDS011;24559;53.590;9.764;2023-07-31T01:12:25;9.77;;;2.40;;
25333;SDS011;24559;53.590;9.764;2023-07-31T01:17:27;7.97;;;2.42;;
25333;SDS011;24559;53.590;9.764;2023-07-31T01:19:53;9.35;;;2.03;;
25333;SDS011;24559;53.590;9.764;2023-07-31T01:27:42;4.78;;;2.25;;
25333;SDS011;24559;53.590;9.764;2023-07-31T01:30:16;4.97;;;2.30;;
25333;SDS011;24559;53.590;9.764;2023-07-31T01:32:47;5.68;;;2.28;;
25333;SDS011;24559;53.590;9.764;2023-07-31T01:35:14;7.30;;;2.33;;
25333;SDS011;24559;53.590;9.764;2023-07-31T01:37:40;11.38;;;2.65;;
25333;SDS011;24559;53.590;9.764;2023-07-31T01:40:07;10.93;;;3.00;;
25333;SDS011;24559;53.590;9.764;2023-07-31T01:42:34;6.75;;;2.00;;
25333;SDS011;24559;53.590;9.764;2023-07-31T01:45:00;7.80;;;2.60;;
25333;SDS011;24559;53.590;9.764;2023-07-31T01:47:27;8.32;;;2.20;;
25333;SDS011;24559;53.590;9.764;2023-07-31T01:49:53;6.97;;;2.25;;
25333;SDS011;24559;53.590;9.764;2023-07-31T01:52:19;7.55;;;2.63;;
25333;SDS011;24559;53.590;9.764;2023-07-31T01:54:45;5.00;;;2.63;;
25333;SDS011;24559;53.590;9.764;2023-07-31T01:57:11;5.97;;;2.75;;
25333;SDS011;24559;53.590;9.764;2023-07-31T01:59:37;6.05;;;2.22;;
25333;SDS011;24559;53.590;9.764;2023-07-31T02:02:03;6.28;;;3.28;;
25333;SDS011;24559;53.590;9.764;2023-07-31T02:04:30;7.25;;;2.67;;
25333;SDS011;24559;53.590;9.764;2023-07-31T02:06:56;6.85;;;2.80;;
25333;SDS011;24559;53.590;9.764;2023-07-31T02:09:22;10.30;;;2.92;;
25333;SDS011;24559;53.590;9.764;2023-07-31T02:11:49;9.75;;;2.83;;
25333;SDS011;24559;53.590;9.764;2023-07-31T02:14:15;6.45;;;2.70;;
25333;SDS011;24559;53.590;9.764;2023-07-31T02:16:41;5.70;;;2.50;;
25333;SDS011;24559;53.590;9.764;2023-07-31T02:19:08;6.35;;;2.70;;
25333;SDS011;24559;53.590;9.764;2023-07-31T02:21:34;4.45;;;2.50;;
25333;SDS011;24559;53.590;9.764;2023-07-31T02:24:03;9.27;;;2.60;;
25333;SDS011;24559;53.590;9.764;2023-07-31T02:26:30;7.25;;;2.70;;
25333;SDS011;24559;53.590;9.764;2023-07-31T02:28:56;5.63;;;2.80;;
25333;SDS011;24559;53.590;9.764;2023-07-31T02:31:22;9.27;;;2.45;;
25333;SDS011;24559;53.590;9.764;2023-07-31T02:33:48;10.93;;;3.00;;
25333;SDS011;24559;53.590;9.764;2023-07-31T02:36:15;7.70;;;2.83;;
25333;SDS011;24559;53.590;9.764;2023-07-31T02:38:41;6.75;;;2.40;;
25333;SDS011;24559;53.590;9.764;2023-07-31T02:41:07;8.27;;;3.22;;
25333;SDS011;24559;53.590;9.764;2023-07-31T02:43:33;9.07;;;3.10;;
25333;SDS011;24559;53.590;9.764;2023-07-31T02:46:00;7.93;;;2.97;;
25333;SDS011;24559;53.590;9.764;2023-07-31T02:48:26;6.78;;;3.08;;
25333;SDS011;24559;53.590;9.764;2023-07-31T02:50:53;7.30;;;2.70;;
25333;SDS011;24559;53.590;9.764;2023-07-31T02:53:19;5.13;;;2.85;;
25333;SDS011;24559;53.590;9.764;2023-07-31T02:55:45;8.15;;;3.15;;
25333;SDS011;24559;53.590;9.764;2023-07-31T02:58:11;8.15;;;3.13;;
25333;SDS011;24559;53.590;9.764;2023-07-31T03:00:41;8.90;;;3.30;;
25333;SDS011;24559;53.590;9.764;2023-07-31T03:03:08;11.32;;;3.42;;
25333;SDS011;24559;53.590;9.764;2023-07-31T03:05:35;6.55;;;2.78;;
25333;SDS011;24559;53.590;9.764;2023-07-31T03:08:01;6.80;;;3.13;;
25333;SDS011;24559;53.590;9.764;2023-07-31T03:10:27;8.35;;;2.90;;
25333;SDS011;24559;53.590;9.764;2023-07-31T03:12:53;9.80;;;3.10;;
25333;SDS011;24559;53.590;9.764;2023-07-31T03:15:20;7.65;;;2.88;;
25333;SDS011;24559;53.590;9.764;2023-07-31T03:17:46;8.45;;;3.13;;
25333;SDS011;24559;53.590;9.764;2023-07-31T03:20:12;7.63;;;2.72;;
25333;SDS011;24559;53.590;9.764;2023-07-31T03:22:38;7.55;;;3.22;;
25333;SDS011;24559;53.590;9.764;2023-07-31T03:25:04;6.28;;;2.80;;
25333;SDS011;24559;53.590;9.764;2023-07-31T03:27:31;9.95;;;3.13;;
25333;SDS011;24559;53.590;9.764;2023-07-31T03:29:57;9.68;;;3.50;;
25333;SDS011;24559;53.590;9.764;2023-07-31T03:32:24;7.13;;;3.17;;
25333;SDS011;24559;53.590;9.764;2023-07-31T03:34:50;5.28;;;2.92;;
25333;SDS011;24559;53.590;9.764;2023-07-31T03:37:16;7.38;;;3.13;;
25333;SDS011;24559;53.590;9.764;2023-07-31T03:39:42;8.10;;;2.67;;
25333;SDS011;24559;53.590;9.764;2023-07-31T03:42:08;8.40;;;3.70;;
25333;SDS011;24559;53.590;9.764;2023-07-31T03:44:34;8.27;;;3.35;;
25333;SDS011;24559;53.590;9.764;2023-07-31T03:47:01;7.88;;;3.33;;
25333;SDS011;24559;53.590;9.764;2023-07-31T03:49:27;10.32;;;2.90;;
25333;SDS011;24559;53.590;9.764;2023-07-31T03:51:53;4.35;;;2.72;;
25333;SDS011;24559;53.590;9.764;2023-07-31T03:54:20;8.27;;;3.35;;
25333;SDS011;24559;53.590;9.764;2023-07-31T03:56:46;8.45;;;2.90;;
25333;SDS011;24559;53.590;9.764;2023-07-31T03:59:12;5.15;;;2.95;;
25333;SDS011;24559;53.590;9.764;2023-07-31T04:01:38;7.43;;;3.00;;
25333;SDS011;24559;53.590;9.764;2023-07-31T04:04:04;4.70;;;2.90;;
25333;SDS011;24559;53.590;9.764;2023-07-31T04:06:31;5.60;;;3.30;;
25333;SDS011;24559;53.590;9.764;2023-07-31T04:08:57;6.95;;;2.65;;
25333;SDS011;24559;53.590;9.764;2023-07-31T04:11:23;5.95;;;3.00;;
25333;SDS011;24559;53.590;9.764;2023-07-31T04:13:49;3.53;;;2.55;;
25333;SDS011;24559;53.590;9.764;2023-07-31T04:16:15;4.95;;;2.60;;
25333;SDS011;24559;53.590;9.764;2023-07-31T04:18:41;6.82;;;2.70;;
25333;SDS011;24559;53.590;9.764;2023-07-31T04:21:08;5.07;;;2.97;;
25333;SDS011;24559;53.590;9.764;2023-07-31T04:23:35;6.88;;;2.97;;
25333;SDS011;24559;53.590;9.764;2023-07-31T04:26:01;3.88;;;2.72;;
25333;SDS011;24559;53.590;9.764;2023-07-31T04:28:27;2.70;;;2.53;;
25333;SDS011;24559;53.590;9.764;2023-07-31T04:30:53;5.43;;;2.65;;
25333;SDS011;24559;53.590;9.764;2023-07-31T04:33:19;4.00;;;2.40;;
25333;SDS011;24559;53.590;9.764;2023-07-31T04:35:52;4.00;;;2.40;;
25333;SDS011;24559;53.590;9.764;2023-07-31T04:38:19;5.47;;;2.55;;
25333;SDS011;24559;53.590;9.764;2023-07-31T04:40:46;3.08;;;2.67;;
25333;SDS011;24559;53.590;9.764;2023-07-31T04:43:12;3.45;;;2.40;;
25333;SDS011;24559;53.590;9.764;2023-07-31T04:45:38;3.83;;;2.33;;
25333;SDS011;24559;53.590;9.764;2023-07-31T04:48:04;5.22;;;2.80;;
25333;SDS011;24559;53.590;9.764;2023-07-31T04:50:30;2.55;;;2.35;;
25333;SDS011;24559;53.590;9.764;2023-07-31T04:52:56;2.13;;;1.98;;
25333;SDS011;24559;53.590;9.764;2023-07-31T04:55:23;2.40;;;2.20;;
25333;SDS011;24559;53.590;9.764;2023-07-31T04:57:49;4.38;;;2.33;;
25333;SDS011;24559;53.590;9.764;2023-07-31T05:00:15;2.40;;;2.20;;
25333;SDS011;24559;53.590;9.764;2023-07-31T05:02:42;3.05;;;2.85;;
25333;SDS011;24559;53.590;9.764;2023-07-31T05:05:08;2.50;;;2.30;;
25333;SDS011;24559;53.590;9.764;2023-07-31T05:07:34;3.03;;;1.88;;
25333;SDS011;24559;53.590;9.764;2023-07-31T05:10:00;2.90;;;2.70;;
25333;SDS011;24559;53.590;9.764;2023-07-31T05:12:26;2.85;;;2.65;;
25333;SDS011;24559;53.590;9.764;2023-07-31T05:14:53;3.50;;;2.60;;
25333;SDS011;24559;53.590;9.764;2023-07-31T05:17:19;2.78;;;2.53;;
25333;SDS011;24559;53.590;9.764;2023-07-31T05:19:45;3.05;;;2.80;;
25333;SDS011;24559;53.590;9.764;2023-07-31T05:22:11;2.63;;;2.42;;
25333;SDS011;24559;53.590;9.764;2023-07-31T05:24:37;2.33;;;2.13;;
25333;SDS011;24559;53.590;9.764;2023-07-31T05:27:04;2.65;;;2.45;;
25333;SDS011;24559;53.590;9.764;2023-07-31T05:29:30;3.92;;;2.95;;
25333;SDS011;24559;53.590;9.764;2023-07-31T05:31:56;2.50;;;2.30;;
25333;SDS011;24559;53.590;9.764;2023-07-31T05:34:23;3.70;;;2.30;;
25333;SDS011;24559;53.590;9.764;2023-07-31T05:36:49;2.30;;;2.15;;
25333;SDS011;24559;53.590;9.764;2023-07-31T05:39:15;2.28;;;1.88;;
25333;SDS011;24559;53.590;9.764;2023-07-31T05:41:43;2.20;;;1.98;;
25333;SDS011;24559;53.590;9.764;2023-07-31T05:44:09;2.10;;;2.00;;
25333;SDS011;24559;53.590;9.764;2023-07-31T05:46:36;2.10;;;1.90;;
25333;SDS011;24559;53.590;9.764;2023-07-31T05:49:02;1.83;;;1.73;;
25333;SDS011;24559;53.590;9.764;2023-07-31T05:51:28;1.80;;;1.70;;
25333;SDS011;24559;53.590;9.764;2023-07-31T05:53:55;1.42;;;1.33;;
25333;SDS011;24559;53.590;9.764;2023-07-31T05:56:21;2.00;;;1.90;;
25333;SDS011;24559;53.590;9.764;2023-07-31T05:58:47;3.83;;;1.80;;
25333;SDS011;24559;53.590;9.764;2023-07-31T06:01:15;1.92;;;1.60;;
25333;SDS011;24559;53.590;9.764;2023-07-31T06:03:41;1.30;;;1.20;;
25333;SDS011;24559;53.590;9.764;2023-07-31T06:06:08;1.60;;;1.50;;
25333;SDS011;24559;53.590;9.764;2023-07-31T06:08:34;1.65;;;1.55;;
25333;SDS011;24559;53.590;9.764;2023-07-31T06:11:00;1.80;;;1.70;;
25333;SDS011;24559;53.590;9.764;2023-07-31T06:13:26;1.60;;;1.50;;
25333;SDS011;24559;53.590;9.764;2023-07-31T06:15:52;1.38;;;1.27;;
25333;SDS011;24559;53.590;9.764;2023-07-31T06:18:18;1.58;;;1.48;;
25333;SDS011;24559;53.590;9.764;2023-07-31T06:20:45;1.30;;;1.20;;
25333;SDS011;24559;53.590;9.764;2023-07-31T06:23:12;1.98;;;1.77;;
25333;SDS011;24559;53.590;9.764;2023-07-31T06:25:39;4.95;;;1.55;;
25333;SDS011;24559;53.590;9.764;2023-07-31T06:28:05;1.58;;;1.48;;
25333;SDS011;24559;53.590;9.764;2023-07-31T06:30:31;1.48;;;1.38;;
25333;SDS011;24559;53.590;9.764;2023-07-31T06:32:57;1.48;;;1.38;;
25333;SDS011;24559;53.590;9.764;2023-07-31T06:35:23;1.20;;;1.15;;
25333;SDS011;24559;53.590;9.764;2023-07-31T06:37:50;1.58;;;1.33;;
25333;SDS011;24559;53.590;9.764;2023-07-31T06:40:16;2.40;;;1.75;;
25333;SDS011;24559;53.590;9.764;2023-07-31T06:42:43;3.33;;;1.85;;
25333;SDS011;24559;53.590;9.764;2023-07-31T06:45:09;1.52;;;1.42;;
25333;SDS011;24559;53.590;9.764;2023-07-31T06:47:36;2.08;;;1.92;;
25333;SDS011;24559;53.590;9.764;2023-07-31T06:50:04;3.80;;;1.67;;
25333;SDS011;24559;53.590;9.764;2023-07-31T06:52:30;1.70;;;1.60;;
25333;SDS011;24559;53.590;9.764;2023-07-31T06:55:00;1.73;;;1.60;;
25333;SDS011;24559;53.590;9.764;2023-07-31T06:57:28;1.50;;;1.40;;
25333;SDS011;24559;53.590;9.764;2023-07-31T06:59:54;2.58;;;2.20;;
25333;SDS011;24559;53.590;9.764;2023-07-31T07:02:20;2.08;;;1.55;;
25333;SDS011;24559;53.590;9.764;2023-07-31T07:04:46;1.70;;;1.60;;
25333;SDS011;24559;53.590;9.764;2023-07-31T07:07:13;2.22;;;1.90;;
25333;SDS011;24559;53.590;9.764;2023-07-31T07:09:39;1.60;;;1.50;;
25333;SDS011;24559;53.590;9.764;2023-07-31T07:12:06;1.73;;;1.73;;
25333;SDS011;24559;53.590;9.764;2023-07-31T07:14:32;1.83;;;1.73;;
25333;SDS011;24559;53.590;9.764;2023-07-31T07:16:58;2.08;;;1.98;;
25333;SDS011;24559;53.590;9.764;2023-07-31T07:19:24;2.33;;;1.58;;
25333;SDS011;24559;53.590;9.764;2023-07-31T07:21:51;2.17;;;1.95;;
25333;SDS011;24559;53.590;9.764;2023-07-31T07:24:17;2.67;;;2.00;;
25333;SDS011;24559;53.590;9.764;2023-07-31T07:26:43;2.00;;;1.90;;
25333;SDS011;24559;53.590;9.764;2023-07-31T07:29:09;1.70;;;1.60;;
25333;SDS011;24559;53.590;9.764;2023-07-31T07:31:37;2.00;;;1.90;;
25333;SDS011;24559;53.590;9.764;2023-07-31T07:34:03;2.08;;;1.98;;
25333;SDS011;24559;53.590;9.764;2023-07-31T07:36:30;2.10;;;2.00;;
25333;SDS011;24559;53.590;9.764;2023-07-31T07:38:57;4.18;;;2.13;;
25333;SDS011;24559;53.590;9.764;2023-07-31T07:41:23;2.25;;;2.10;;
25333;SDS011;24559;53.590;9.764;2023-07-31T07:43:50;2.47;;;2.38;;
25333;SDS011;24559;53.590;9.764;2023-07-31T07:46:17;2.05;;;1.92;;
25333;SDS011;24559;53.590;9.764;2023-07-31T07:48:43;6.60;;;2.15;;
25333;SDS011;24559;53.590;9.764;2023-07-31T07:51:09;4.75;;;1.73;;
25333;SDS011;24559;53.590;9.764;2023-07-31T07:53:35;2.60;;;1.50;;
25333;SDS011;24559;53.590;9.764;2023-07-31T07:56:02;1.85;;;1.75;;
25333;SDS011;24559;53.590;9.764;2023-07-31T07:58:28;1.83;;;1.73;;
25333;SDS011;24559;53.590;9.764;2023-07-31T08:00:54;1.60;;;1.50;;
25333;SDS011;24559;53.590;9.764;2023-07-31T08:03:21;1.23;;;1.23;;
25333;SDS011;24559;53.590;9.764;2023-07-31T08:05:47;3.15;;;1.33;;
25333;SDS011;24559;53.590;9.764;2023-07-31T08:08:14;1.70;;;1.60;;
25333;SDS011;24559;53.590;9.764;2023-07-31T08:10:41;1.77;;;1.67;;
25333;SDS011;24559;53.590;9.764;2023-07-31T08:13:07;1.70;;;1.60;;
25333;SDS011;24559;53.590;9.764;2023-07-31T08:15:33;1.30;;;1.30;;
25333;SDS011;24559;53.590;9.764;2023-07-31T08:18:00;4.70;;;1.20;;
25333;SDS011;24559;53.590;9.764;2023-07-31T08:20:26;1.48;;;1.40;;
25333;SDS011;24559;53.590;9.764;2023-07-31T08:22:52;1.60;;;1.50;;
25333;SDS011;24559;53.590;9.764;2023-07-31T08:25:19;1.98;;;1.30;;
25333;SDS011;24559;53.590;9.764;2023-07-31T08:27:45;1.75;;;1.10;;
25333;SDS011;24559;53.590;9.764;2023-07-31T08:30:11;1.20;;;1.05;;
25333;SDS011;24559;53.590;9.764;2023-07-31T08:32:38;1.17;;;1.08;;
25333;SDS011;24559;53.590;9.764;2023-07-31T08:35:04;0.90;;;0.90;;
25333;SDS011;24559;53.590;9.764;2023-07-31T08:37:30;2.63;;;1.08;;
25333;SDS011;24559;53.590;9.764;2023-07-31T08:39:56;0.98;;;0.98;;
25333;SDS011;24559;53.590;9.764;2023-07-31T08:42:23;1.98;;;0.90;;
25333;SDS011;24559;53.590;9.764;2023-07-31T08:44:50;1.75;;;0.80;;
25333;SDS011;24559;53.590;9.764;2023-07-31T08:47:17;0.80;;;0.80;;
25333;SDS011;24559;53.590;9.764;2023-07-31T08:49:44;0.98;;;0.90;;
25333;SDS011;24559;53.590;9.764;2023-07-31T08:52:12;0.98;;;0.95;;
25333;SDS011;24559;53.590;9.764;2023-07-31T08:54:38;0.90;;;0.90;;
25333;SDS011;24559;53.590;9.764;2023-07-31T08:57:05;2.17;;;0.95;;
25333;SDS011;24559;53.590;9.764;2023-07-31T08:59:31;1.05;;;0.90;;
25333;SDS011;24559;53.590;9.764;2023-07-31T09:02:03;0.73;;;0.73;;
25333;SDS011;24559;53.590;9.764;2023-07-31T09:04:31;1.10;;;1.00;;
25333;SDS011;24559;53.590;9.764;2023-07-31T09:06:59;1.38;;;0.90;;
25333;SDS011;24559;53.590;9.764;2023-07-31T09:09:26;0.90;;;0.90;;
25333;SDS011;24559;53.590;9.764;2023-07-31T09:11:52;1.58;;;0.90;;
25333;SDS011;24559;53.590;9.764;2023-07-31T09:14:19;1.27;;;0.80;;
25333;SDS011;24559;53.590;9.764;2023-07-31T09:16:55;0.95;;;0.70;;
25333;SDS011;24559;53.590;9.764;2023-07-31T09:19:55;0.90;;;0.90;;
25333;SDS011;24559;53.590;9.764;2023-07-31T09:22:14;0.70;;;0.70;;
25333;SDS011;24559;53.590;9.764;2023-07-31T09:24:40;0.70;;;0.70;;
25333;SDS011;24559;53.590;9.764;2023-07-31T09:27:06;1.23;;;0.98;;
25333;SDS011;24559;53.590;9.764;2023-07-31T09:29:33;1.17;;;0.98;;
25333;SDS011;24559;53.590;9.764;2023-07-31T09:31:59;0.80;;;0.80;;
25333;SDS011;24559;53.590;9.764;2023-07-31T09:34:38;0.88;;;0.88;;
25333;SDS011;24559;53.590;9.764;2023-07-31T09:37:05;0.80;;;0.80;;
25333;SDS011;24559;53.590;9.764;2023-07-31T09:39:31;0.90;;;0.90;;
25333;SDS011;24559;53.590;9.764;2023-07-31T09:41:59;1.00;;;0.95;;
25333;SDS011;24559;53.590;9.764;2023-07-31T09:44:38;1.00;;;1.00;;
25333;SDS011;24559;53.590;9.764;2023-07-31T09:47:06;0.98;;;0.98;;
25333;SDS011;24559;53.590;9.764;2023-07-31T09:49:32;0.90;;;0.90;;
25333;SDS011;24559;53.590;9.764;2023-07-31T09:51:58;0.80;;;0.80;;
25333;SDS011;24559;53.590;9.764;2023-07-31T09:54:25;0.90;;;0.90;;
25333;SDS011;24559;53.590;9.764;2023-07-31T09:56:51;0.82;;;0.77;;
25333;SDS011;24559;53.590;9.764;2023-07-31T09:59:19;1.50;;;1.20;;
25333;SDS011;24559;53.590;9.764;2023-07-31T10:01:45;1.90;;;0.80;;
25333;SDS011;24559;53.590;9.764;2023-07-31T10:04:12;0.98;;;0.98;;
25333;SDS011;24559;53.590;9.764;2023-07-31T10:06:39;1.27;;;1.00;;
25333;SDS011;24559;53.590;9.764;2023-07-31T10:09:07;1.00;;;0.98;;
25333;SDS011;24559;53.590;9.764;2023-07-31T10:11:43;0.77;;;0.77;;
25333;SDS011;24559;53.590;9.764;2023-07-31T10:14:15;1.55;;;1.00;;
25333;SDS011;24559;53.590;9.764;2023-07-31T10:16:42;0.73;;;0.73;;
25333;SDS011;24559;53.590;9.764;2023-07-31T10:19:08;0.80;;;0.80;;
25333;SDS011;24559;53.590;9.764;2023-07-31T10:21:35;1.65;;;0.80;;
25333;SDS011;24559;53.590;9.764;2023-07-31T10:24:04;1.38;;;0.80;;
25333;SDS011;24559;53.590;9.764;2023-07-31T10:26:31;0.60;;;0.60;;
25333;SDS011;24559;53.590;9.764;2023-07-31T10:29:00;0.60;;;0.60;;
25333;SDS011;24559;53.590;9.764;2023-07-31T10:31:27;0.80;;;0.80;;
25333;SDS011;24559;53.590;9.764;2023-07-31T10:33:54;0.77;;;0.75;;
25333;SDS011;24559;53.590;9.764;2023-07-31T10:36:20;0.70;;;0.70;;
25333;SDS011;24559;53.590;9.764;2023-07-31T10:38:50;0.57;;;0.57;;
25333;SDS011;24559;53.590;9.764;2023-07-31T10:41:16;0.70;;;0.50;;
25333;SDS011;24559;53.590;9.764;2023-07-31T10:43:42;2.13;;;0.65;;
25333;SDS011;24559;53.590;9.764;2023-07-31T10:46:09;0.70;;;0.70;;
25333;SDS011;24559;53.590;9.764;2023-07-31T10:48:37;0.60;;;0.60;;
25333;SDS011;24559;53.590;9.764;2023-07-31T10:51:10;0.50;;;0.50;;
25333;SDS011;24559;53.590;9.764;2023-07-31T10:53:37;1.48;;;0.63;;
25333;SDS011;24559;53.590;9.764;2023-07-31T10:56:08;1.05;;;0.60;;
25333;SDS011;24559;53.590;9.764;2023-07-31T10:58:37;1.00;;;0.90;;
25333;SDS011;24559;53.590;9.764;2023-07-31T11:01:04;3.33;;;0.95;;
25333;SDS011;24559;53.590;9.764;2023-07-31T11:03:56;2.25;;;0.73;;
25333;SDS011;24559;53.590;9.764;2023-07-31T11:06:17;0.63;;;0.63;;
25333;SDS011;24559;53.590;9.764;2023-07-31T11:08:47;1.15;;;0.43;;
25333;SDS011;24559;53.590;9.764;2023-07-31T11:11:17;0.50;;;0.50;;
25333;SDS011;24559;53.590;9.764;2023-07-31T11:13:47;0.88;;;0.60;;
25333;SDS011;24559;53.590;9.764;2023-07-31T11:16:18;0.50;;;0.50;;
25333;SDS011;24559;53.590;9.764;2023-07-31T11:18:45;1.75;;;0.50;;
25333;SDS011;24559;53.590;9.764;2023-07-31T11:21:17;0.60;;;0.60;;
25333;SDS011;24559;53.590;9.764;2023-07-31T11:23:47;2.25;;;0.63;;
25333;SDS011;24559;53.590;9.764;2023-07-31T11:26:13;1.42;;;0.50;;
25333;SDS011;24559;53.590;9.764;2023-07-31T11:28:40;1.27;;;0.75;;
25333;SDS011;24559;53.590;9.764;2023-07-31T11:31:09;2.67;;;0.52;;
25333;SDS011;24559;53.590;9.764;2023-07-31T11:33:36;0.50;;;0.50;;
25333;SDS011;24559;53.590;9.764;2023-07-31T11:36:02;1.85;;;0.40;;
25333;SDS011;24559;53.590;9.764;2023-07-31T11:38:33;0.50;;;0.50;;
25333;SDS011;24559;53.590;9.764;2023-07-31T11:41:00;0.50;;;0.50;;
25333;SDS011;24559;53.590;9.764;2023-07-31T11:43:32;5.05;;;1.17;;
25333;SDS011;24559;53.590;9.764;2023-07-31T11:46:01;1.05;;;0.90;;
25333;SDS011;24559;53.590;9.764;2023-07-31T11:48:36;0.93;;;0.70;;
25333;SDS011;24559;53.590;9.764;2023-07-31T11:51:03;0.55;;;0.50;;
25333;SDS011;24559;53.590;9.764;2023-07-31T11:56:02;2.33;;;0.60;;
25333;SDS011;24559;53.590;9.764;2023-07-31T11:58:30;0.55;;;0.55;;
25333;SDS011;24559;53.590;9.764;2023-07-31T12:00:57;0.65;;;0.60;;
25333;SDS011;24559;53.590;9.764;2023-07-31T12:03:24;0.60;;;0.50;;
25333;SDS011;24559;53.590;9.764;2023-07-31T12:05:50;2.60;;;0.70;;
25333;SDS011;24559;53.590;9.764;2023-07-31T12:08:16;2.20;;;0.70;;
25333;SDS011;24559;53.590;9.764;2023-07-31T12:10:43;0.88;;;0.50;;
25333;SDS011;24559;53.590;9.764;2023-07-31T12:13:11;0.60;;;0.60;;
25333;SDS011;24559;53.590;9.764;2023-07-31T12:15:41;0.50;;;0.50;;
25333;SDS011;24559;53.590;9.764;2023-07-31T12:18:09;1.20;;;0.70;;
25333;SDS011;24559;53.590;9.764;2023-07-31T12:20:39;0.77;;;0.60;;
25333;SDS011;24559;53.590;9.764;2023-07-31T12:23:05;0.40;;;0.40;;
25333;SDS011;24559;53.590;9.764;2023-07-31T12:25:32;0.50;;;0.50;;
25333;SDS011;24559;53.590;9.764;2023-07-31T12:28:05;0.47;;;0.47;;
25333;SDS011;24559;53.590;9.764;2023-07-31T12:30:36;2.80;;;0.70;;
25333;SDS011;24559;53.590;9.764;2023-07-31T12:33:13;1.42;;;0.45;;
25333;SDS011;24559;53.590;9.764;2023-07-31T12:35:45;0.40;;;0.40;;
25333;SDS011;24559;53.590;9.764;2023-07-31T12:38:12;0.38;;;0.38;;
25333;SDS011;24559;53.590;9.764;2023-07-31T12:40:39;0.45;;;0.45;;
25333;SDS011;24559;53.590;9.764;2023-07-31T12:43:06;0.40;;;0.40;;
25333;SDS011;24559;53.590;9.764;2023-07-31T12:45:32;1.92;;;0.45;;
25333;SDS011;24559;53.590;9.764;2023-07-31T12:47:59;0.68;;;0.60;;
25333;SDS011;24559;53.590;9.764;2023-07-31T12:50:25;1.00;;;0.50;;
25333;SDS011;24559;53.590;9.764;2023-07-31T12:52:53;0.40;;;0.40;;
25333;SDS011;24559;53.590;9.764;2023-07-31T12:55:20;1.67;;;0.60;;
25333;SDS011;24559;53.590;9.764;2023-07-31T12:57:46;2.00;;;0.70;;
25333;SDS011;24559;53.590;9.764;2023-07-31T13:00:12;0.30;;;0.30;;
25333;SDS011;24559;53.590;9.764;2023-07-31T13:02:39;0.47;;;0.40;;
25333;SDS011;24559;53.590;9.764;2023-07-31T13:05:05;3.83;;;0.65;;
25333;SDS011;24559;53.590;9.764;2023-07-31T13:07:32;1.85;;;0.40;;
25333;SDS011;24559;53.590;9.764;2023-07-31T13:09:58;1.40;;;0.40;;
25333;SDS011;24559;53.590;9.764;2023-07-31T13:12:24;0.40;;;0.40;;
25333;SDS011;24559;53.590;9.764;2023-07-31T13:14:50;1.38;;;0.80;;
25333;SDS011;24559;53.590;9.764;2023-07-31T13:17:17;0.40;;;0.40;;
25333;SDS011;24559;53.590;9.764;2023-07-31T13:19:44;2.20;;;0.60;;
25333;SDS011;24559;53.590;9.764;2023-07-31T13:22:10;1.45;;;0.40;;
25333;SDS011;24559;53.590;9.764;2023-07-31T13:24:37;0.50;;;0.50;;
25333;SDS011;24559;53.590;9.764;2023-07-31T13:27:03;2.17;;;0.43;;
25333;SDS011;24559;53.590;9.764;2023-07-31T13:29:29;1.70;;;0.60;;
25333;SDS011;24559;53.590;9.764;2023-07-31T13:31:57;0.60;;;0.60;;
25333;SDS011;24559;53.590;9.764;2023-07-31T13:34:23;4.85;;;2.15;;
25333;SDS011;24559;53.590;9.764;2023-07-31T13:36:49;2.50;;;2.30;;
25333;SDS011;24559;53.590;9.764;2023-07-31T13:39:16;2.65;;;1.75;;
25333;SDS011;24559;53.590;9.764;2023-07-31T13:41:42;4.65;;;2.03;;
25333;SDS011;24559;53.590;9.764;2023-07-31T13:44:08;1.77;;;1.67;;
25333;SDS011;24559;53.590;9.764;2023-07-31T13:46:34;2.58;;;2.35;;
25333;SDS011;24559;53.590;9.764;2023-07-31T13:49:00;2.33;;;2.13;;
25333;SDS011;24559;53.590;9.764;2023-07-31T13:51:27;1.90;;;1.70;;
25333;SDS011;24559;53.590;9.764;2023-07-31T13:53:53;4.93;;;1.10;;
25333;SDS011;24559;53.590;9.764;2023-07-31T13:56:19;0.80;;;0.80;;
25333;SDS011;24559;53.590;9.764;2023-07-31T13:58:45;0.60;;;0.60;;
25333;SDS011;24559;53.590;9.764;2023-07-31T14:01:12;1.77;;;0.50;;
25333;SDS011;24559;53.590;9.764;2023-07-31T14:03:38;0.55;;;0.50;;
25333;SDS011;24559;53.590;9.764;2023-07-31T14:06:04;0.55;;;0.50;;
25333;SDS011;24559;53.590;9.764;2023-07-31T14:08:30;0.50;;;0.50;;
25333;SDS011;24559;53.590;9.764;2023-07-31T14:10:56;0.47;;;0.40;;
25333;SDS011;24559;53.590;9.764;2023-07-31T14:13:22;1.48;;;0.47;;
25333;SDS011;24559;53.590;9.764;2023-07-31T14:15:49;0.65;;;0.57;;
25333;SDS011;24559;53.590;9.764;2023-07-31T14:18:15;0.52;;;0.52;;
25333;SDS011;24559;53.590;9.764;2023-07-31T14:20:41;0.50;;;0.50;;
25333;SDS011;24559;53.590;9.764;2023-07-31T14:23:08;2.88;;;0.63;;
25333;SDS011;24559;53.590;9.764;2023-07-31T14:25:34;0.88;;;0.60;;
25333;SDS011;24559;53.590;9.764;2023-07-31T14:28:00;1.85;;;0.60;;
25333;SDS011;24559;53.590;9.764;2023-07-31T14:30:26;0.80;;;0.65;;
25333;SDS011;24559;53.590;9.764;2023-07-31T14:32:52;0.50;;;0.50;;
25333;SDS011;24559;53.590;9.764;2023-07-31T14:35:19;1.98;;;0.60;;
25333;SDS011;24559;53.590;9.764;2023-07-31T14:37:45;0.52;;;0.52;;
25333;SDS011;24559;53.590;9.764;2023-07-31T14:40:12;0.50;;;0.50;;
25333;SDS011;24559;53.590;9.764;2023-07-31T14:42:39;3.33;;;0.57;;
25333;SDS011;24559;53.590;9.764;2023-07-31T14:45:05;0.40;;;0.40;;
25333;SDS011;24559;53.590;9.764;2023-07-31T14:47:32;0.40;;;0.38;;
25333;SDS011;24559;53.590;9.764;2023-07-31T14:49:59;0.93;;;0.63;;
25333;SDS011;24559;53.590;9.764;2023-07-31T14:52:25;1.27;;;0.40;;
25333;SDS011;24559;53.590;9.764;2023-07-31T14:54:51;4.25;;;1.10;;
25333;SDS011;24559;53.590;9.764;2023-07-31T14:57:18;10.35;;;8.30;;
25333;SDS011;24559;53.590;9.764;2023-07-31T14:59:45;7.32;;;6.68;;